Rechercher aéroport 
image banner adimage banner ad
image banner ad

SBCI - Brig. Lysias Augusto Rodrigues Airport

Situé à Carolina, Brazil

ICAO - SBCI, IATA - CLN

Données fournies par Airmate  

Information générale

Coordonnées: S7°19'14" W47°27'31"
Élévation : 564 feet MSL.
Variation magnétique : -21° East
Voir autres Aéroports à Maranhão

Données opérationnelles

Accessible au public
Heure actuelle UTC:
Heure actuelle locale:
Météo
METAR: SBCI 211400Z AUTO 02003KT 310V110 9999 FEW022 SCT026 29/23 Q1012
Voir NOTAMs / SUP AIP / TFR affectant cet aéroport [VIEW]
Fréquences de communication: [VIEW]

Pistes:

Coordonnées de l'aéroport

Adresse: Carolina Brazil

Vue satellite de SBCI